createdAt,value
2022-09-01T00:00:01.611Z,17.62
2022-09-01T00:02:29.050Z,17.56
2022-09-01T00:04:55.594Z,17.54
2022-09-01T00:07:21.921Z,17.51
2022-09-01T00:09:48.226Z,17.44
2022-09-01T00:12:14.534Z,17.43
2022-09-01T00:14:42.180Z,17.37
2022-09-01T00:17:09.600Z,17.37
2022-09-01T00:19:36.367Z,17.33
2022-09-01T00:22:03.227Z,17.26
2022-09-01T00:24:29.582Z,17.20
2022-09-01T00:26:56.671Z,17.14
2022-09-01T00:29:23.870Z,17.07
2022-09-01T00:31:51.998Z,17.05
2022-09-01T00:34:18.335Z,17.05
2022-09-01T00:36:44.700Z,17.03
2022-09-01T00:39:12.107Z,16.97
2022-09-01T00:42:03.348Z,16.89
2022-09-01T00:44:31.297Z,16.86
2022-09-01T00:46:59.945Z,16.86
2022-09-01T00:49:28.369Z,16.81
2022-09-01T00:51:58.844Z,16.76
2022-09-01T00:54:27.303Z,16.76
2022-09-01T00:56:57.775Z,16.73
2022-09-01T00:59:25.700Z,16.71
2022-09-01T01:01:52.105Z,16.65
2022-09-01T01:04:19.842Z,16.63
2022-09-01T01:06:47.583Z,16.60
2022-09-01T01:09:13.903Z,16.59
2022-09-01T01:11:40.271Z,16.57
2022-09-01T01:14:07.730Z,16.56
2022-09-01T01:16:34.072Z,16.58
2022-09-01T01:19:00.417Z,16.60
2022-09-01T01:21:31.632Z,16.58
2022-09-01T01:24:02.273Z,16.58
2022-09-01T01:26:29.943Z,16.59
2022-09-01T01:28:56.258Z,16.59
2022-09-01T01:31:22.657Z,16.60
2022-09-01T01:33:50.895Z,16.58
2022-09-01T01:36:19.349Z,16.58
2022-09-01T01:38:47.039Z,16.56
2022-09-01T01:41:14.117Z,16.54
2022-09-01T01:43:41.882Z,16.54
2022-09-01T01:46:09.393Z,16.54
2022-09-01T01:48:36.675Z,16.50
2022-09-01T01:51:03.531Z,16.42
2022-09-01T01:53:30.249Z,16.39
2022-09-01T01:55:56.701Z,16.38
2022-09-01T01:58:23.181Z,16.34
2022-09-01T02:00:51.823Z,16.29
2022-09-01T02:03:19.182Z,16.24
2022-09-01T02:05:46.530Z,16.19
2022-09-01T02:08:13.185Z,16.17
2022-09-01T02:10:40.639Z,16.08
2022-09-01T02:13:06.954Z,16.04
2022-09-01T02:15:34.861Z,16.01
2022-09-01T02:18:03.260Z,15.97
2022-09-01T02:20:31.600Z,15.93
2022-09-01T02:22:58.119Z,15.88
2022-09-01T02:25:24.436Z,15.86
2022-09-01T02:27:50.754Z,15.83
2022-09-01T02:30:17.070Z,15.80
2022-09-01T02:32:43.371Z,15.76
2022-09-01T02:35:11.039Z,15.73
2022-09-01T02:37:38.383Z,15.71
2022-09-01T02:40:06.049Z,15.69
2022-09-01T02:42:32.419Z,15.70
2022-09-01T02:44:58.781Z,15.67
2022-09-01T02:47:25.114Z,15.64
2022-09-01T02:49:51.460Z,15.59
2022-09-01T02:52:19.122Z,15.54
2022-09-01T02:54:45.442Z,15.49
2022-09-01T02:57:11.796Z,15.46
2022-09-01T02:59:43.146Z,15.43
2022-09-01T03:02:11.823Z,15.37
2022-09-01T03:04:38.191Z,15.35
2022-09-01T03:07:05.474Z,15.33
2022-09-01T03:09:33.141Z,15.28
2022-09-01T03:11:59.451Z,15.27
2022-09-01T03:14:25.865Z,15.20
2022-09-01T03:16:52.266Z,15.13
2022-09-01T03:19:18.668Z,15.09
2022-09-01T03:21:45.430Z,15.14
2022-09-01T03:24:13.279Z,15.09
2022-09-01T03:26:41.500Z,15.04
2022-09-01T03:29:08.348Z,15.01
2022-09-01T03:31:35.165Z,14.97
2022-09-01T03:34:01.831Z,14.94
2022-09-01T03:36:28.872Z,14.89
2022-09-01T03:38:55.566Z,14.90
2022-09-01T03:41:24.082Z,14.85
2022-09-01T03:43:52.030Z,14.80
2022-09-01T03:46:18.575Z,14.76
2022-09-01T03:48:44.908Z,14.76
2022-09-01T03:51:11.207Z,14.73
2022-09-01T03:53:37.964Z,14.70
2022-09-01T03:56:05.126Z,14.65
2022-09-01T03:58:31.583Z,14.67
2022-09-01T04:00:59.633Z,14.60
2022-09-01T04:03:28.971Z,14.57
2022-09-01T04:05:57.983Z,14.51
2022-09-01T04:08:25.082Z,14.53
2022-09-01T04:10:54.426Z,14.47
2022-09-01T04:13:22.422Z,14.43
2022-09-01T04:15:48.879Z,14.40
2022-09-01T04:18:16.968Z,14.36
2022-09-01T04:20:43.362Z,14.35
2022-09-01T04:23:09.699Z,14.34
2022-09-01T04:25:36.059Z,14.33
2022-09-01T04:28:02.602Z,14.30
2022-09-01T04:30:28.965Z,14.29
2022-09-01T04:32:55.281Z,14.29
2022-09-01T04:35:22.985Z,14.28
2022-09-01T04:37:49.310Z,14.26
2022-09-01T04:40:15.772Z,14.24
2022-09-01T04:42:42.100Z,14.25
2022-09-01T04:45:10.861Z,14.21
2022-09-01T04:47:37.450Z,14.16
2022-09-01T04:50:04.600Z,14.16
2022-09-01T04:52:32.302Z,14.16
2022-09-01T04:54:58.664Z,14.13
2022-09-01T04:57:24.999Z,14.12
2022-09-01T04:59:51.295Z,14.10
2022-09-01T05:02:17.658Z,14.10
2022-09-01T05:04:43.990Z,14.09
2022-09-01T05:07:10.647Z,14.10
2022-09-01T05:09:38.303Z,14.11
2022-09-01T05:12:05.029Z,14.08
2022-09-01T05:14:31.338Z,14.08
2022-09-01T05:16:58.123Z,14.09
2022-09-01T05:19:24.503Z,14.10
2022-09-01T05:21:50.837Z,14.06
2022-09-01T05:24:18.067Z,14.08
2022-09-01T05:26:45.867Z,14.10
2022-09-01T05:29:12.195Z,14.12
2022-09-01T05:31:39.586Z,14.13
2022-09-01T05:34:06.784Z,14.19
2022-09-01T05:36:33.136Z,14.22
2022-09-01T05:39:00.109Z,14.26
2022-09-01T05:41:26.999Z,14.28
2022-09-01T05:44:00.078Z,14.33
2022-09-01T05:46:27.283Z,14.41
2022-09-01T05:48:54.485Z,14.43
2022-09-01T05:51:43.427Z,14.50
2022-09-01T05:54:08.861Z,14.48
2022-09-01T05:56:39.272Z,14.53
2022-09-01T05:59:26.380Z,14.57
2022-09-01T06:01:53.048Z,14.61
2022-09-01T06:04:19.491Z,14.65
2022-09-01T06:07:06.017Z,14.71
2022-09-01T06:09:33.958Z,14.73
2022-09-01T06:12:00.272Z,14.77
2022-09-01T06:14:27.967Z,14.79
2022-09-01T06:16:54.308Z,14.87
2022-09-01T06:19:20.913Z,14.94
2022-09-01T06:21:47.251Z,15.03
2022-09-01T06:24:13.559Z,15.12
2022-09-01T06:26:39.892Z,15.21
2022-09-01T06:29:07.342Z,15.27
2022-09-01T06:31:35.567Z,15.36
2022-09-01T06:34:02.547Z,15.44
2022-09-01T06:36:34.424Z,15.50
2022-09-01T06:39:01.299Z,15.59
2022-09-01T06:41:28.051Z,15.70
2022-09-01T06:43:54.462Z,15.78
2022-09-01T06:46:21.402Z,15.88
2022-09-01T06:48:49.519Z,15.95
2022-09-01T06:51:19.583Z,16.06
2022-09-01T06:53:48.287Z,16.18
2022-09-01T06:56:15.622Z,16.29
2022-09-01T06:58:43.020Z,16.38
2022-09-01T07:01:10.957Z,16.48
2022-09-01T07:03:38.137Z,16.58
2022-09-01T07:06:06.600Z,16.70
2022-09-01T07:08:32.899Z,16.80
2022-09-01T07:16:35.416Z,17.11
2022-09-01T07:19:03.818Z,17.18
2022-09-01T07:21:41.757Z,17.27
2022-09-01T07:26:55.490Z,17.50
2022-09-01T07:29:21.850Z,17.58
2022-09-01T07:31:49.680Z,17.72
2022-09-01T07:39:51.270Z,17.99
2022-09-01T07:42:33.695Z,17.38
2022-09-01T07:47:52.980Z,18.32
2022-09-01T07:53:07.501Z,18.54
2022-09-01T07:55:33.810Z,18.65
2022-09-01T07:58:00.136Z,18.72
2022-09-01T08:00:30.185Z,18.84
2022-09-01T08:02:58.054Z,18.94
2022-09-01T08:05:24.438Z,18.98
2022-09-01T08:07:52.008Z,19.04
2022-09-01T08:10:20.486Z,19.16
2022-09-01T08:12:55.943Z,19.24
2022-09-01T08:15:41.437Z,19.40
2022-09-01T08:18:08.568Z,19.51
2022-09-01T08:20:37.328Z,19.57
2022-09-01T08:23:03.674Z,19.64
2022-09-01T08:25:31.391Z,19.73
2022-09-01T08:28:00.954Z,19.89
2022-09-01T08:30:27.779Z,19.95
2022-09-01T08:32:54.138Z,20.00
2022-09-01T08:35:20.574Z,20.14
2022-09-01T08:37:46.923Z,20.21
2022-09-01T08:40:14.652Z,20.29
2022-09-01T08:42:50.050Z,20.39
2022-09-01T08:45:22.794Z,20.53
2022-09-01T08:48:22.569Z,20.63
2022-09-01T08:50:38.776Z,20.73
2022-09-01T08:53:09.401Z,20.78
2022-09-01T08:55:37.470Z,20.92
2022-09-01T08:58:05.447Z,21.07
2022-09-01T09:00:37.166Z,21.21
2022-09-01T09:03:12.034Z,21.32
2022-09-01T09:05:43.646Z,21.47
2022-09-01T09:08:20.289Z,21.60
2022-09-01T09:10:51.129Z,21.75
2022-09-01T09:13:21.592Z,21.84
2022-09-01T09:15:52.078Z,21.89
2022-09-01T09:18:39.867Z,21.95
2022-09-01T09:21:08.419Z,21.99
2022-09-01T09:23:39.279Z,22.05
2022-09-01T09:26:07.956Z,22.23
2022-09-01T09:28:35.811Z,22.38
2022-09-01T09:31:20.765Z,22.51
2022-09-01T09:33:52.102Z,22.63
2022-09-01T09:36:22.047Z,22.72
2022-09-01T09:39:04.308Z,22.75
2022-09-01T09:41:31.417Z,22.79
2022-09-01T09:44:00.238Z,22.80
2022-09-01T09:46:33.185Z,22.87
2022-09-01T09:49:10.236Z,22.98
2022-09-01T09:51:37.073Z,23.12
2022-09-01T09:54:13.705Z,23.23
2022-09-01T09:56:40.327Z,23.28
2022-09-01T09:59:29.231Z,23.36
2022-09-01T10:02:16.442Z,23.42
2022-09-01T10:04:42.835Z,23.48
2022-09-01T10:07:26.282Z,23.52
2022-09-01T10:09:53.031Z,23.62
2022-09-01T10:12:19.993Z,23.73
2022-09-01T10:14:52.007Z,23.81
2022-09-01T10:17:23.217Z,23.85
2022-09-01T10:19:53.431Z,23.92
2022-09-01T10:22:20.292Z,24.02
2022-09-01T10:24:50.351Z,24.05
2022-09-01T10:27:19.413Z,23.98
2022-09-01T10:29:47.968Z,23.84
2022-09-01T10:32:42.174Z,23.86
2022-09-01T10:35:07.624Z,23.99
2022-09-01T10:37:34.229Z,24.15
2022-09-01T10:40:11.307Z,24.25
2022-09-01T10:42:38.479Z,24.32
2022-09-01T10:45:05.215Z,24.39
2022-09-01T10:47:33.729Z,24.45
2022-09-01T10:50:06.998Z,24.15
2022-09-01T10:52:53.844Z,24.21
2022-09-01T10:55:25.113Z,24.35
2022-09-01T10:57:56.153Z,24.48
2022-09-01T11:00:41.890Z,24.57
2022-09-01T11:03:42.053Z,24.58
2022-09-01T11:06:33.227Z,24.70
2022-09-01T11:09:02.931Z,24.74
2022-09-01T11:11:31.371Z,24.83
2022-09-01T11:13:58.355Z,24.93
2022-09-01T11:16:50.025Z,25.00
2022-09-01T11:19:35.087Z,25.08
2022-09-01T11:22:10.146Z,25.17
2022-09-01T11:24:54.469Z,25.20
2022-09-01T11:27:45.251Z,25.24
2022-09-01T11:30:16.094Z,25.28
2022-09-01T11:32:46.812Z,25.33
2022-09-01T11:35:16.822Z,25.42
2022-09-01T11:37:43.421Z,25.46
2022-09-01T11:40:10.336Z,25.40
2022-09-01T11:42:39.614Z,25.39
2022-09-01T11:45:12.779Z,25.43
2022-09-01T11:47:48.295Z,25.44
2022-09-01T11:50:19.993Z,25.45
2022-09-01T11:52:54.019Z,25.42
2022-09-01T11:55:28.766Z,25.54
2022-09-01T11:57:55.080Z,25.60
2022-09-01T12:00:25.991Z,25.64
2022-09-01T12:02:52.463Z,25.69
2022-09-01T12:05:28.150Z,25.69
2022-09-01T12:07:54.710Z,25.73
2022-09-01T12:10:24.027Z,25.77
2022-09-01T12:12:50.338Z,25.82
2022-09-01T12:15:19.336Z,25.77
2022-09-01T12:17:45.914Z,25.72
2022-09-01T12:20:29.416Z,25.74
2022-09-01T12:22:56.359Z,25.74
2022-09-01T12:25:24.519Z,25.78
2022-09-01T12:27:52.384Z,25.84
2022-09-01T12:30:19.686Z,25.87
2022-09-01T12:32:46.671Z,25.92
2022-09-01T12:35:15.732Z,25.96
2022-09-01T12:37:43.466Z,25.90
2022-09-01T12:40:21.889Z,25.87
2022-09-01T12:42:49.505Z,25.89
2022-09-01T12:45:35.770Z,25.89
2022-09-01T12:48:02.247Z,25.94
2022-09-01T12:50:45.447Z,25.90
2022-09-01T12:53:18.740Z,25.96
2022-09-01T12:55:55.216Z,25.94
2022-09-01T12:58:23.370Z,25.86
2022-09-01T13:01:00.579Z,25.91
2022-09-01T13:03:27.468Z,25.96
2022-09-01T13:05:54.393Z,25.96
2022-09-01T13:08:23.197Z,25.94
2022-09-01T13:10:51.701Z,25.95
2022-09-01T13:13:18.266Z,25.91
2022-09-01T13:15:45.483Z,25.86
2022-09-01T13:18:11.880Z,25.78
2022-09-01T13:20:38.241Z,25.74
2022-09-01T13:23:04.567Z,25.66
2022-09-01T13:25:32.221Z,25.57
2022-09-01T13:27:58.548Z,25.55
2022-09-01T13:30:25.504Z,25.55
2022-09-01T13:35:38.338Z,25.35
2022-09-01T13:38:05.210Z,25.29
2022-09-01T13:40:32.939Z,25.22
2022-09-01T13:42:59.294Z,25.12
2022-09-01T13:45:25.685Z,25.14
2022-09-01T13:53:25.611Z,24.98
2022-09-01T13:55:53.287Z,24.94
2022-09-01T13:58:19.670Z,24.84
2022-09-01T14:00:47.283Z,24.76
2022-09-01T14:03:15.606Z,24.67
2022-09-01T14:05:43.016Z,24.65
2022-09-01T14:08:10.347Z,24.65
2022-09-01T14:10:38.537Z,24.60
2022-09-01T14:13:06.190Z,24.66
2022-09-01T14:15:32.507Z,24.74
2022-09-01T14:17:58.826Z,24.76
2022-09-01T14:20:26.329Z,24.77
2022-09-01T14:22:53.119Z,24.77
2022-09-01T14:25:20.431Z,24.73
2022-09-01T14:27:47.529Z,24.65
2022-09-01T14:30:16.575Z,24.60
2022-09-01T14:32:43.086Z,24.53
2022-09-01T14:35:09.612Z,24.54
2022-09-01T14:37:36.743Z,24.57
2022-09-01T14:40:03.737Z,24.59
2022-09-01T14:42:30.085Z,24.62
2022-09-01T14:44:56.417Z,24.66
2022-09-01T14:47:24.147Z,24.67
2022-09-01T14:49:50.460Z,24.65
2022-09-01T14:52:16.794Z,24.63
2022-09-01T14:54:43.106Z,24.61
2022-09-01T14:59:55.942Z,24.68
2022-09-01T15:02:23.578Z,24.72
2022-09-01T15:04:49.967Z,24.73
2022-09-01T15:07:16.339Z,24.82
2022-09-01T15:09:42.663Z,24.87
2022-09-01T15:12:09.011Z,24.88
2022-09-01T15:14:35.519Z,24.86
2022-09-01T15:17:01.828Z,24.80
2022-09-01T15:19:29.495Z,24.78
2022-09-01T15:21:55.834Z,24.75
2022-09-01T15:24:22.135Z,24.77
2022-09-01T15:26:48.503Z,24.80
2022-09-01T15:29:15.152Z,24.82
2022-09-01T15:31:43.176Z,24.78
2022-09-01T15:34:09.571Z,24.68
2022-09-01T15:36:38.607Z,24.69
2022-09-01T15:39:04.967Z,24.62
2022-09-01T15:41:32.156Z,24.59
2022-09-01T15:43:58.719Z,24.58
2022-09-01T15:46:25.714Z,24.59
2022-09-01T15:48:52.047Z,24.53
2022-09-01T15:51:28.930Z,24.48
2022-09-01T15:53:59.177Z,24.48
2022-09-01T15:56:25.965Z,24.48
2022-09-01T15:59:01.103Z,24.45
2022-09-01T16:01:29.514Z,24.46
2022-09-01T16:03:56.125Z,24.47
2022-09-01T16:06:22.482Z,24.44
2022-09-01T16:08:48.974Z,24.45
2022-09-01T16:11:16.638Z,24.45
2022-09-01T16:13:43.134Z,24.44
2022-09-01T16:16:17.375Z,24.44
2022-09-01T16:18:46.107Z,24.42
2022-09-01T16:21:14.304Z,24.39
2022-09-01T16:23:41.781Z,24.34
2022-09-01T16:26:08.085Z,24.30
2022-09-01T16:28:36.777Z,24.28
2022-09-01T16:31:05.684Z,24.28
2022-09-01T16:33:32.435Z,24.25
2022-09-01T16:36:05.475Z,24.25
2022-09-01T16:38:36.256Z,24.24
2022-09-01T16:41:07.047Z,24.22
2022-09-01T16:43:38.846Z,24.20
2022-09-01T16:46:08.954Z,24.21
2022-09-01T16:48:39.087Z,24.21
2022-09-01T16:51:10.226Z,24.23
2022-09-01T16:53:47.202Z,24.20
2022-09-01T16:56:15.323Z,24.17
2022-09-01T16:58:44.807Z,24.14
2022-09-01T17:01:21.725Z,24.12
2022-09-01T17:03:53.807Z,24.10
2022-09-01T17:06:22.919Z,24.10
2022-09-01T17:08:50.487Z,24.07
2022-09-01T17:11:19.474Z,24.08
2022-09-01T17:13:47.715Z,24.04
2022-09-01T17:16:18.424Z,23.98
2022-09-01T17:18:49.299Z,23.92
2022-09-01T17:21:17.864Z,23.84
2022-09-01T17:23:50.304Z,23.79
2022-09-01T17:26:19.638Z,23.72
2022-09-01T17:28:49.213Z,23.66
2022-09-01T17:31:21.738Z,23.59
2022-09-01T17:33:58.067Z,23.52
2022-09-01T17:36:29.026Z,23.45
2022-09-01T17:38:59.566Z,23.37
2022-09-01T17:41:31.756Z,23.29
2022-09-01T17:44:01.425Z,23.19
2022-09-01T17:46:33.610Z,23.13
2022-09-01T17:49:07.731Z,23.04
2022-09-01T17:51:36.828Z,22.96
2022-09-01T17:54:07.092Z,22.89
2022-09-01T17:56:36.998Z,22.83
2022-09-01T17:59:07.706Z,22.75
2022-09-01T18:01:37.899Z,22.66
2022-09-01T18:04:16.262Z,22.58
2022-09-01T18:06:46.127Z,22.49
2022-09-01T18:09:14.998Z,22.40
2022-09-01T18:11:47.259Z,22.31
2022-09-01T18:14:14.215Z,22.24
2022-09-01T18:16:50.555Z,22.16
2022-09-01T18:19:19.724Z,22.09
2022-09-01T18:21:49.656Z,22.02
2022-09-01T18:24:18.227Z,21.94
2022-09-01T18:26:46.091Z,21.88
2022-09-01T18:29:12.419Z,21.80
2022-09-01T18:31:49.113Z,21.74
2022-09-01T18:34:19.713Z,21.65
2022-09-01T18:36:53.807Z,21.58
2022-09-01T18:39:24.858Z,21.51
2022-09-01T18:41:57.071Z,21.47
2022-09-01T18:44:29.375Z,21.39
2022-09-01T18:46:59.909Z,21.32
2022-09-01T18:49:30.273Z,21.27
2022-09-01T18:52:03.590Z,21.22
2022-09-01T18:54:33.624Z,21.17
2022-09-01T18:57:01.355Z,21.10
2022-09-01T18:59:40.906Z,21.05
2022-09-01T19:02:12.213Z,21.00
2022-09-01T19:04:39.638Z,20.96
2022-09-01T19:07:11.212Z,20.92
2022-09-01T19:09:41.935Z,20.87
2022-09-01T19:12:15.778Z,20.82
2022-09-01T19:14:45.555Z,20.79
2022-09-01T19:17:28.830Z,20.74
2022-09-01T19:19:57.745Z,20.69
2022-09-01T19:22:30.298Z,20.64
2022-09-01T19:24:59.583Z,20.59
2022-09-01T19:27:30.599Z,20.55
2022-09-01T19:29:58.564Z,20.49
2022-09-01T19:32:27.098Z,20.45
2022-09-01T19:34:56.230Z,20.39
2022-09-01T19:37:22.960Z,20.32
2022-09-01T19:39:54.268Z,20.28
2022-09-01T19:42:23.417Z,20.23
2022-09-01T19:44:53.770Z,20.17
2022-09-01T19:47:25.839Z,20.15
2022-09-01T19:49:57.055Z,20.11
2022-09-01T19:52:27.503Z,20.08
2022-09-01T19:54:57.999Z,20.04
2022-09-01T19:57:30.144Z,19.99
2022-09-01T20:00:00.195Z,19.96
2022-09-01T20:02:29.047Z,19.92
2022-09-01T20:04:58.874Z,19.85
2022-09-01T20:07:28.925Z,19.82
2022-09-01T20:10:01.474Z,19.81
2022-09-01T20:12:32.010Z,19.76
2022-09-01T20:15:06.855Z,19.72
2022-09-01T20:17:36.994Z,19.68
2022-09-01T20:20:07.174Z,19.64
2022-09-01T20:22:36.542Z,19.60
2022-09-01T20:25:07.179Z,19.56
2022-09-01T20:27:36.915Z,19.53
2022-09-01T20:30:05.130Z,19.50
2022-09-01T20:32:35.009Z,19.44
2022-09-01T20:35:07.418Z,19.39
2022-09-01T20:37:36.520Z,19.35
2022-09-01T20:40:06.044Z,19.34
2022-09-01T20:42:35.887Z,19.29
2022-09-01T20:45:09.484Z,19.26
2022-09-01T20:47:35.811Z,19.20
2022-09-01T20:50:06.338Z,19.17
2022-09-01T20:52:36.303Z,19.14
2022-09-01T20:55:09.023Z,19.09
2022-09-01T20:57:40.460Z,19.06
2022-09-01T21:00:08.742Z,19.03
2022-09-01T21:02:41.754Z,19.02
2022-09-01T21:05:15.101Z,18.99
2022-09-01T21:07:47.690Z,18.97
2022-09-01T21:10:17.991Z,18.94
2022-09-01T21:12:49.018Z,18.90
2022-09-01T21:15:22.004Z,18.87
2022-09-01T21:17:52.777Z,18.86
2022-09-01T21:20:24.409Z,18.81
2022-09-01T21:22:50.885Z,18.77
2022-09-01T21:25:18.549Z,18.74
2022-09-01T21:27:45.732Z,18.72
2022-09-01T21:30:13.763Z,18.68
2022-09-01T21:32:40.551Z,18.61
2022-09-01T21:35:08.215Z,18.60
2022-09-01T21:37:34.776Z,18.59
2022-09-01T21:40:01.308Z,18.56
2022-09-01T21:42:30.554Z,18.54
2022-09-01T21:44:57.420Z,18.49
2022-09-01T21:47:24.042Z,18.45
2022-09-01T21:49:50.347Z,18.42
2022-09-01T21:52:16.679Z,18.39
2022-09-01T21:54:43.023Z,18.34
2022-09-01T21:57:09.643Z,18.31
2022-09-01T21:59:37.371Z,18.29
2022-09-01T22:02:04.138Z,18.27
2022-09-01T22:04:30.501Z,18.23
2022-09-01T22:06:56.830Z,18.18
2022-09-01T22:09:23.141Z,18.13
2022-09-01T22:11:50.494Z,18.08
2022-09-01T22:14:16.948Z,18.05
2022-09-01T22:16:44.724Z,18.00
2022-09-01T22:19:11.086Z,17.98
2022-09-01T22:21:39.410Z,17.99
2022-09-01T22:24:06.013Z,17.93
2022-09-01T22:26:32.809Z,17.92
2022-09-01T22:29:00.121Z,17.86
2022-09-01T22:31:28.421Z,17.82
2022-09-01T22:33:56.627Z,17.82
2022-09-01T22:36:23.930Z,17.77
2022-09-01T22:38:50.714Z,17.70
2022-09-01T22:41:18.362Z,17.67
2022-09-01T22:43:44.931Z,17.65
2022-09-01T22:46:11.337Z,17.64
2022-09-01T22:48:37.675Z,17.62
2022-09-01T22:51:07.246Z,17.59
2022-09-01T22:53:33.776Z,17.55
2022-09-01T22:56:00.312Z,17.56
2022-09-01T22:58:26.912Z,17.52
2022-09-01T23:00:54.281Z,17.48
2022-09-01T23:03:21.280Z,17.50
2022-09-01T23:05:48.234Z,17.46
2022-09-01T23:08:16.211Z,17.41
2022-09-01T23:10:42.779Z,17.39
2022-09-01T23:13:09.198Z,17.38
2022-09-01T23:15:35.503Z,17.37
2022-09-01T23:18:01.813Z,17.33
2022-09-01T23:20:28.211Z,17.33
2022-09-01T23:22:54.674Z,17.25
2022-09-01T23:25:22.377Z,17.19
2022-09-01T23:27:48.682Z,17.18
2022-09-01T23:30:15.102Z,17.11
2022-09-01T23:32:41.446Z,17.12
2022-09-01T23:35:08.173Z,17.11
2022-09-01T23:37:34.590Z,17.08
2022-09-01T23:40:01.033Z,17.04
2022-09-01T23:42:28.705Z,17.01
2022-09-01T23:44:55.023Z,16.97
2022-09-01T23:47:21.362Z,16.94
2022-09-01T23:49:47.673Z,16.92
2022-09-01T23:52:13.981Z,16.88
2022-09-01T23:54:40.306Z,16.86
2022-09-01T23:57:06.615Z,16.85
2022-09-01T23:59:34.285Z,16.81
